Time;durP1;ratioP1;P1;durP2;ratioP2;P2;SDS_P1;SDS_P2;PMS_P1;PMS_P2;Temp;Humidity;BMP_temperature;BMP_pressure;BME280_temperature;BME280_humidity;BME280_pressure;Samples;Min_cycle;Max_cycle;Signal;HPM_P1;HPM_P2
2022/07/10 00:02:11;;;;;;;5.83;1.70;;;15.30;41.20;;;;;;5050855;28;20888;-74
2022/07/10 00:04:37;;;;;;;7.67;2.30;;;15.40;41.10;;;;;;5051144;28;20424;-74
2022/07/10 00:07:03;;;;;;;8.07;2.65;;;15.30;41.40;;;;;;5051366;28;20385;-75
2022/07/10 00:09:29;;;;;;;8.65;2.80;;;15.40;42.10;;;;;;5051164;28;20386;-75
2022/07/10 00:11:55;;;;;;;6.30;2.30;;;15.40;42.60;;;;;;5050942;28;20765;-75
2022/07/10 00:14:20;;;;;;;8.73;2.40;;;15.40;42.60;;;;;;5050818;28;20807;-74
2022/07/10 00:16:46;;;;;;;9.27;2.60;;;15.40;43.50;;;;;;5050708;28;20412;-75
2022/07/10 00:19:12;;;;;;;10.50;2.73;;;15.40;44.10;;;;;;5050759;28;20382;-75
2022/07/10 00:21:37;;;;;;;8.57;2.70;;;15.40;44.60;;;;;;5050651;28;20739;-74
2022/07/10 00:24:03;;;;;;;8.90;2.60;;;15.40;44.20;;;;;;5049416;28;20397;-74
2022/07/10 00:26:29;;;;;;;10.43;2.90;;;15.30;44.60;;;;;;5049160;28;20777;-75
2022/07/10 00:28:54;;;;;;;9.27;2.60;;;15.30;44.80;;;;;;5050313;28;20386;-75
2022/07/10 00:31:20;;;;;;;14.05;2.85;;;15.30;44.50;;;;;;5050326;28;20467;-74
2022/07/10 00:33:47;;;;;;;9.10;2.70;;;15.30;44.20;;;;;;5050283;28;20451;-74
2022/07/10 00:36:13;;;;;;;12.70;3.00;;;15.30;43.30;;;;;;5050301;28;20924;-74
2022/07/10 00:38:39;;;;;;;7.20;2.28;;;15.40;42.60;;;;;;5050153;28;20394;-73
2022/07/10 00:41:05;;;;;;;7.97;2.17;;;15.30;41.40;;;;;;5049276;28;20381;-74
2022/07/10 00:43:50;;;;;;;9.03;2.43;;;15.40;41.60;;;;;;5051057;28;20426;-75
2022/07/10 00:46:20;;;;;;;5.00;1.83;;;15.40;41.60;;;;;;5050982;28;20385;-75
2022/07/10 00:48:46;;;;;;;4.50;1.90;;;15.40;40.90;;;;;;5050687;28;20519;-73
2022/07/10 00:51:12;;;;;;;7.20;2.20;;;15.40;41.10;;;;;;5050098;28;20397;-75
2022/07/10 00:53:37;;;;;;;6.40;1.73;;;15.40;41.20;;;;;;5050233;28;20439;-74
2022/07/10 00:56:04;;;;;;;8.33;2.10;;;15.50;40.70;;;;;;5049949;28;20467;-72
2022/07/10 00:58:29;;;;;;;6.22;1.83;;;15.50;40.70;;;;;;5050217;28;20394;-73
2022/07/10 01:00:55;;;;;;;5.20;1.95;;;15.60;39.70;;;;;;5050149;28;20409;-75
2022/07/10 01:03:21;;;;;;;9.43;1.98;;;15.50;40.00;;;;;;5054787;28;20468;-74
2022/07/10 01:05:47;;;;;;;7.10;2.10;;;15.60;39.90;;;;;;5056965;28;20510;-75
2022/07/10 01:08:12;;;;;;;5.72;2.08;;;15.50;40.10;;;;;;5054114;28;20396;-74
2022/07/10 01:10:39;;;;;;;6.80;1.90;;;15.60;40.90;;;;;;5053975;28;20381;-73
2022/07/10 01:13:06;;;;;;;7.50;2.17;;;15.60;40.00;;;;;;5053753;28;20421;-75
2022/07/10 01:15:32;;;;;;;7.93;2.20;;;15.60;40.00;;;;;;5053706;28;20473;-75
2022/07/10 01:17:58;;;;;;;6.55;1.70;;;15.50;40.60;;;;;;5053741;28;20393;-74
2022/07/10 01:20:31;;;;;;;7.85;2.00;;;15.60;40.60;;;;;;5053625;28;20374;-74
2022/07/10 01:22:56;;;;;;;8.80;2.00;;;15.60;40.60;;;;;;5053402;28;20378;-75
2022/07/10 01:25:22;;;;;;;6.67;2.13;;;15.60;41.00;;;;;;5053560;28;20377;-73
2022/07/10 01:27:47;;;;;;;6.22;2.40;;;15.60;40.00;;;;;;5053547;28;20416;-75
2022/07/10 01:30:13;;;;;;;8.63;2.15;;;15.60;39.70;;;;;;5053692;28;20378;-75
2022/07/10 01:32:41;;;;;;;4.37;1.90;;;15.60;39.70;;;;;;5053328;28;20409;-74
2022/07/10 01:35:08;;;;;;;10.77;2.70;;;15.60;39.50;;;;;;5053399;28;20447;-74
2022/07/10 01:37:33;;;;;;;9.73;2.67;;;15.60;39.80;;;;;;5051909;28;20378;-76
2022/07/10 01:39:59;;;;;;;7.15;2.50;;;15.60;39.90;;;;;;5053380;28;21008;-74
2022/07/10 01:42:25;;;;;;;6.80;1.98;;;15.50;39.60;;;;;;5052883;28;20410;-73
2022/07/10 01:44:50;;;;;;;6.67;2.57;;;15.50;40.10;;;;;;5053074;28;20877;-73
2022/07/10 01:47:16;;;;;;;8.33;2.10;;;15.50;40.10;;;;;;5053171;28;20398;-75
2022/07/10 01:49:41;;;;;;;9.43;2.00;;;15.50;39.80;;;;;;5053009;28;20590;-75
2022/07/10 01:52:07;;;;;;;7.75;2.42;;;15.50;40.20;;;;;;5052802;28;20398;-75
2022/07/10 01:54:33;;;;;;;10.23;2.40;;;15.50;39.80;;;;;;5052941;28;20519;-73
2022/07/10 01:56:58;;;;;;;7.75;2.53;;;15.50;40.40;;;;;;5052838;28;20455;-74
2022/07/10 01:59:24;;;;;;;10.77;2.50;;;15.40;40.80;;;;;;5053012;28;20385;-74
2022/07/10 02:01:49;;;;;;;10.60;2.70;;;15.30;41.90;;;;;;5052688;28;20385;-74
2022/07/10 02:06:59;;;;;;;14.82;2.72;;;15.20;43.60;;;;;;5070234;22;20448;-74
2022/07/10 02:09:25;;;;;;;8.30;2.45;;;15.10;44.50;;;;;;5055320;28;20382;-74
2022/07/10 02:11:50;;;;;;;10.38;2.30;;;15.10;44.80;;;;;;5054087;28;20413;-74
2022/07/10 02:14:16;;;;;;;9.40;2.90;;;15.10;45.00;;;;;;5054203;28;20427;-74
2022/07/10 02:16:44;;;;;;;14.23;2.83;;;15.10;45.50;;;;;;5053343;28;20484;-73
2022/07/10 02:19:10;;;;;;;6.97;2.63;;;15.00;45.60;;;;;;5053833;28;20417;-74
2022/07/10 02:21:35;;;;;;;12.70;3.30;;;15.00;46.00;;;;;;5053323;28;20424;-73
2022/07/10 02:24:01;;;;;;;8.80;2.90;;;14.90;46.80;;;;;;5053489;28;20421;-74
2022/07/10 02:26:26;;;;;;;9.20;3.00;;;14.90;47.70;;;;;;5053064;28;20413;-73
2022/07/10 02:28:52;;;;;;;10.10;3.00;;;14.80;48.60;;;;;;5053387;28;20420;-73
2022/07/10 02:31:17;;;;;;;8.85;2.85;;;14.70;49.00;;;;;;5052696;28;20496;-73
2022/07/10 02:33:43;;;;;;;9.97;3.00;;;14.70;49.50;;;;;;5052919;28;20742;-74
2022/07/10 02:36:08;;;;;;;13.00;3.03;;;14.70;50.10;;;;;;5052738;28;20388;-74
2022/07/10 02:38:34;;;;;;;11.20;3.00;;;14.60;50.00;;;;;;5052715;28;20378;-73
2022/07/10 02:40:59;;;;;;;7.97;2.60;;;14.60;50.30;;;;;;5051556;28;20385;-74
2022/07/10 02:43:26;;;;;;;10.10;3.30;;;14.60;51.00;;;;;;5054534;28;20389;-73
2022/07/10 02:45:51;;;;;;;10.57;3.20;;;14.60;51.60;;;;;;5052953;28;20750;-74
2022/07/10 02:48:18;;;;;;;8.40;2.33;;;14.60;51.30;;;;;;5052772;28;20386;-74
2022/07/10 02:50:43;;;;;;;14.25;3.22;;;14.70;51.60;;;;;;5053188;28;20897;-74
2022/07/10 02:53:09;;;;;;;6.50;2.60;;;14.70;51.30;;;;;;5053506;28;20381;-74
2022/07/10 02:55:34;;;;;;;12.20;2.50;;;14.80;51.00;;;;;;5052493;28;20377;-75
2022/07/10 02:58:00;;;;;;;8.90;2.92;;;14.80;51.30;;;;;;5052677;28;20409;-73
2022/07/10 03:00:27;;;;;;;15.02;2.80;;;14.70;51.80;;;;;;5052533;28;20388;-74
2022/07/10 03:02:53;;;;;;;10.30;2.60;;;14.70;51.60;;;;;;5052058;28;20878;-73
2022/07/10 03:05:19;;;;;;;8.38;2.88;;;14.80;52.10;;;;;;5052075;28;20868;-73
2022/07/10 03:07:45;;;;;;;10.27;2.60;;;14.80;52.40;;;;;;5052254;28;20439;-72
2022/07/10 03:10:10;;;;;;;14.10;2.80;;;14.80;52.30;;;;;;5052016;28;20389;-70
2022/07/10 03:12:36;;;;;;;8.70;2.83;;;14.80;52.20;;;;;;5051737;28;20424;-74
2022/07/10 03:15:03;;;;;;;7.83;3.00;;;14.90;52.30;;;;;;5051946;28;20385;-73
2022/07/10 03:17:28;;;;;;;17.67;2.70;;;14.90;52.10;;;;;;5051710;28;20435;-72
2022/07/10 03:19:54;;;;;;;6.57;2.63;;;14.90;52.10;;;;;;5051728;28;20385;-74
2022/07/10 03:22:20;;;;;;;7.45;2.20;;;14.80;52.60;;;;;;5051660;28;20434;-74
2022/07/10 03:24:46;;;;;;;10.60;2.70;;;14.80;52.90;;;;;;5050458;28;20881;-74
2022/07/10 03:27:15;;;;;;;9.40;2.60;;;14.80;53.10;;;;;;5049915;28;20886;-74
2022/07/10 03:29:41;;;;;;;12.68;3.40;;;14.80;53.20;;;;;;5051908;28;20386;-74
2022/07/10 03:32:07;;;;;;;7.10;2.60;;;14.90;53.10;;;;;;5052151;28;20427;-75
2022/07/10 03:34:33;;;;;;;11.48;2.40;;;14.80;52.90;;;;;;5053975;28;20377;-74
2022/07/10 03:37:00;;;;;;;9.07;2.80;;;14.80;53.70;;;;;;5054056;28;20373;-74
2022/07/10 03:39:26;;;;;;;11.38;3.30;;;14.70;54.60;;;;;;5051643;28;20373;-74
2022/07/10 03:41:52;;;;;;;8.88;3.22;;;14.60;54.70;;;;;;5051484;28;20443;-74
2022/07/10 03:44:17;;;;;;;9.07;2.70;;;14.60;54.80;;;;;;5050448;28;20898;-74
2022/07/10 03:46:43;;;;;;;7.38;3.05;;;14.60;55.40;;;;;;5051500;28;20460;-74
2022/07/10 03:49:08;;;;;;;12.40;3.10;;;14.50;56.00;;;;;;5050553;28;20401;-73
2022/07/10 03:51:34;;;;;;;11.40;2.77;;;14.50;56.50;;;;;;5051489;28;20401;-75
2022/07/10 03:53:59;;;;;;;9.43;2.80;;;14.50;56.40;;;;;;5051578;28;20381;-72
2022/07/10 03:59:09;;;;;;;7.90;2.53;;;14.40;57.70;;;;;;5052848;28;20375;-74
2022/07/10 04:01:34;;;;;;;10.20;2.70;;;14.30;58.00;;;;;;5051959;28;20471;-74
2022/07/10 04:04:00;;;;;;;9.43;3.13;;;14.30;58.20;;;;;;5052844;28;20381;-74
2022/07/10 04:06:25;;;;;;;10.77;2.65;;;14.30;58.50;;;;;;5051132;28;20405;-74
2022/07/10 04:08:51;;;;;;;6.60;2.37;;;14.40;58.20;;;;;;5052368;28;20719;-74
2022/07/10 04:11:17;;;;;;;8.40;3.40;;;14.40;58.70;;;;;;5053748;28;20451;-74
2022/07/10 04:13:42;;;;;;;11.03;3.00;;;14.40;58.90;;;;;;5052322;28;20464;-73
2022/07/10 04:16:12;;;;;;;8.27;2.90;;;14.40;59.40;;;;;;5052421;28;20388;-72
2022/07/10 04:18:41;;;;;;;7.88;3.00;;;14.40;59.70;;;;;;5051678;28;20384;-73
2022/07/10 04:21:07;;;;;;;8.95;3.20;;;14.40;60.40;;;;;;5051946;28;20961;-74
2022/07/10 04:23:33;;;;;;;7.65;2.70;;;14.30;61.10;;;;;;5051660;28;20761;-74
2022/07/10 04:25:59;;;;;;;9.18;3.22;;;14.30;61.60;;;;;;5051932;28;20408;-74
2022/07/10 04:28:25;;;;;;;9.25;2.97;;;14.40;61.60;;;;;;5052246;28;20398;-73
2022/07/10 04:30:51;;;;;;;9.20;3.20;;;14.40;61.40;;;;;;5051266;28;20409;-71
2022/07/10 04:33:16;;;;;;;10.10;3.17;;;14.40;61.50;;;;;;5050162;28;20421;-74
2022/07/10 04:35:42;;;;;;;11.17;3.57;;;14.40;61.80;;;;;;5052119;28;20377;-74
2022/07/10 04:38:08;;;;;;;6.88;3.45;;;14.50;62.10;;;;;;5054755;28;20424;-74
2022/07/10 04:40:34;;;;;;;8.27;3.47;;;14.50;62.30;;;;;;5065260;28;20389;-74
2022/07/10 04:42:59;;;;;;;14.83;3.43;;;14.50;61.80;;;;;;5064606;28;20386;-74
2022/07/10 04:45:25;;;;;;;10.20;3.50;;;14.60;61.60;;;;;;5055343;28;20754;-74
2022/07/10 04:47:51;;;;;;;9.90;3.80;;;14.60;60.70;;;;;;5053533;28;20386;-72
2022/07/10 04:50:17;;;;;;;10.20;4.00;;;14.70;60.60;;;;;;5051644;28;20389;-74
2022/07/10 04:52:43;;;;;;;8.57;3.80;;;14.70;60.40;;;;;;5051557;28;20905;-73
2022/07/10 04:55:08;;;;;;;10.35;4.00;;;14.70;59.40;;;;;;5051421;28;20904;-75
2022/07/10 04:57:34;;;;;;;6.72;3.60;;;14.80;60.00;;;;;;5050666;28;20386;-75
2022/07/10 05:00:00;;;;;;;7.53;3.60;;;14.90;58.80;;;;;;5052724;28;20416;-74
2022/07/10 05:02:26;;;;;;;11.88;3.88;;;14.90;59.00;;;;;;5054011;28;20386;-74
2022/07/10 05:04:51;;;;;;;8.07;4.43;;;14.90;58.70;;;;;;5051829;28;20904;-74
2022/07/10 05:07:17;;;;;;;28.70;9.80;;;14.90;59.10;;;;;;5052440;28;20415;-74
2022/07/10 05:09:42;;;;;;;12.10;4.50;;;14.90;58.60;;;;;;5053213;28;20397;-74
2022/07/10 05:12:08;;;;;;;11.90;4.90;;;15.00;56.50;;;;;;5051740;28;20408;-74
2022/07/10 05:14:33;;;;;;;11.43;5.20;;;15.10;56.30;;;;;;5051935;28;20514;-73
2022/07/10 05:16:59;;;;;;;13.82;5.70;;;15.20;55.30;;;;;;5052554;28;20389;-74
2022/07/10 05:19:24;;;;;;;23.97;9.90;;;15.30;55.10;;;;;;5051282;28;20389;-74
2022/07/10 05:21:50;;;;;;;21.13;8.27;;;15.40;53.90;;;;;;5050583;28;20396;-74
2022/07/10 05:24:16;;;;;;;12.23;4.33;;;15.50;53.60;;;;;;5050953;28;20378;-73
2022/07/10 05:26:41;;;;;;;12.00;5.35;;;15.70;52.50;;;;;;5049347;28;20397;-74
2022/07/10 05:29:07;;;;;;;10.70;4.80;;;15.90;50.20;;;;;;5050929;28;20408;-75
2022/07/10 05:31:32;;;;;;;9.35;3.72;;;16.20;48.90;;;;;;5049892;28;20401;-74
2022/07/10 05:33:58;;;;;;;10.20;5.00;;;16.40;45.00;;;;;;5061810;28;20365;-75
2022/07/10 05:36:24;;;;;;;9.70;5.00;;;16.40;45.40;;;;;;5067660;28;20378;-74
2022/07/10 05:38:50;;;;;;;17.45;4.97;;;16.20;46.90;;;;;;5068403;28;20396;-74
2022/07/10 05:41:15;;;;;;;9.90;3.80;;;16.30;46.90;;;;;;5055949;28;20468;-74
2022/07/10 05:43:41;;;;;;;15.63;4.60;;;16.60;44.80;;;;;;5048932;28;20479;-74
2022/07/10 05:46:06;;;;;;;14.02;5.43;;;16.70;44.00;;;;;;5050176;28;20381;-75
2022/07/10 05:48:32;;;;;;;15.82;5.57;;;16.80;43.30;;;;;;5052107;28;20420;-73
2022/07/10 05:50:58;;;;;;;13.60;3.92;;;16.50;43.60;;;;;;5055282;28;20409;-73
2022/07/10 05:53:23;;;;;;;12.93;5.73;;;16.40;44.30;;;;;;5054521;28;20968;-75
2022/07/10 05:55:49;;;;;;;10.17;4.80;;;16.30;44.20;;;;;;5054146;28;20443;-74
2022/07/10 05:58:15;;;;;;;12.30;5.00;;;16.30;44.70;;;;;;5053987;28;20387;-74
2022/07/10 06:00:45;;;;;;;11.02;3.97;;;16.40;45.00;;;;;;5054041;28;20417;-75
2022/07/10 06:03:11;;;;;;;12.35;4.03;;;16.60;43.80;;;;;;5053728;28;20416;-75
2022/07/10 06:05:38;;;;;;;16.60;5.50;;;16.70;43.20;;;;;;5053373;28;20447;-74
2022/07/10 06:08:04;;;;;;;10.43;3.57;;;16.80;41.90;;;;;;5053947;28;20460;-75
2022/07/10 06:10:29;;;;;;;11.65;3.30;;;16.80;41.90;;;;;;5053669;28;20456;-75
2022/07/10 06:12:55;;;;;;;7.10;3.27;;;16.80;41.90;;;;;;5051920;28;20402;-73
2022/07/10 06:15:20;;;;;;;13.20;3.63;;;16.70;43.00;;;;;;5053215;28;20439;-75
2022/07/10 06:17:46;;;;;;;11.23;3.90;;;16.70;42.10;;;;;;5053344;28;20637;-74
2022/07/10 06:20:12;;;;;;;7.50;3.63;;;16.70;42.80;;;;;;5053470;28;20378;-75
2022/07/10 06:22:39;;;;;;;12.93;3.30;;;16.70;43.40;;;;;;5053344;28;20386;-74
2022/07/10 06:25:07;;;;;;;6.03;3.13;;;16.60;43.50;;;;;;5053952;28;20725;-74
2022/07/10 06:27:33;;;;;;;14.13;3.78;;;16.40;45.30;;;;;;5053617;28;20382;-75
2022/07/10 06:29:59;;;;;;;11.70;3.40;;;16.20;45.20;;;;;;5053627;28;20389;-76
2022/07/10 06:32:26;;;;;;;14.57;3.90;;;16.20;45.00;;;;;;5051913;28;20416;-75
2022/07/10 06:34:52;;;;;;;14.52;5.35;;;16.30;46.70;;;;;;5053385;28;20884;-73
2022/07/10 06:37:18;;;;;;;13.30;5.45;;;16.30;45.70;;;;;;5053539;28;20455;-74
2022/07/10 06:39:45;;;;;;;14.10;4.70;;;16.40;45.60;;;;;;5051512;28;20382;-74
2022/07/10 06:42:11;;;;;;;12.60;4.20;;;16.40;44.60;;;;;;5053065;28;20378;-74
2022/07/10 06:44:37;;;;;;;12.82;4.70;;;16.30;45.30;;;;;;5053123;28;20397;-75
2022/07/10 06:49:49;;;;;;;10.82;4.20;;;16.30;45.50;;;;;;5053313;28;20392;-73
2022/07/10 06:52:15;;;;;;;14.63;4.70;;;16.50;45.00;;;;;;5052717;28;20397;-75
2022/07/10 06:54:42;;;;;;;11.95;5.00;;;16.50;43.90;;;;;;5053034;28;20533;-74
2022/07/10 06:57:07;;;;;;;18.95;4.75;;;16.50;44.50;;;;;;5053066;28;20745;-74
2022/07/10 06:59:33;;;;;;;13.57;4.68;;;16.40;43.40;;;;;;5052830;28;20470;-76
2022/07/10 07:01:59;;;;;;;13.30;4.57;;;16.40;44.30;;;;;;5052219;28;20388;-75
2022/07/10 07:04:24;;;;;;;13.50;4.50;;;16.50;44.60;;;;;;5052544;28;20452;-74
2022/07/10 07:06:50;;;;;;;11.87;3.90;;;16.60;43.00;;;;;;5052430;28;20393;-75
2022/07/10 07:09:15;;;;;;;18.58;4.45;;;16.80;42.20;;;;;;5052638;28;20389;-75
2022/07/10 07:11:41;;;;;;;15.10;4.03;;;16.80;40.40;;;;;;5052113;28;20455;-75
2022/07/10 07:14:07;;;;;;;9.10;3.60;;;16.80;41.90;;;;;;5052698;28;20866;-74
2022/07/10 07:16:38;;;;;;;10.83;3.27;;;16.80;39.90;;;;;;5052318;28;20391;-74
2022/07/10 07:19:05;;;;;;;9.73;3.35;;;16.70;38.70;;;;;;5052251;28;20374;-75
2022/07/10 07:24:18;;;;;;;9.38;2.72;;;16.90;36.20;;;;;;5052421;28;20385;-74
2022/07/10 07:26:46;;;;;;;12.98;2.85;;;17.00;35.50;;;;;;5051756;28;20405;-75
2022/07/10 07:29:15;;;;;;;11.77;3.22;;;17.10;36.80;;;;;;5051908;28;20399;-73
2022/07/10 07:31:41;;;;;;;13.32;3.38;;;17.10;34.50;;;;;;5051686;28;20412;-74
2022/07/10 07:34:07;;;;;;;10.55;2.70;;;16.70;36.50;;;;;;5050806;28;20877;-75
2022/07/10 07:36:32;;;;;;;17.17;2.90;;;16.60;37.80;;;;;;5052009;28;20389;-75
2022/07/10 07:38:58;;;;;;;10.48;3.05;;;16.50;39.80;;;;;;5051739;28;20769;-76
2022/07/10 07:41:24;;;;;;;8.80;3.15;;;16.40;39.90;;;;;;5051520;28;20393;-74
2022/07/10 07:43:50;;;;;;;13.32;4.60;;;16.40;40.00;;;;;;5051838;28;20814;-75
2022/07/10 07:46:15;;;;;;;14.13;5.90;;;16.30;42.80;;;;;;5051642;28;20778;-74
2022/07/10 07:48:41;;;;;;;15.85;5.32;;;16.20;45.30;;;;;;5051656;28;20419;-73
2022/07/10 07:51:07;;;;;;;12.65;5.40;;;16.20;47.60;;;;;;5051076;28;20448;-74
2022/07/10 07:53:33;;;;;;;12.57;4.90;;;16.30;49.80;;;;;;5051124;28;20381;-76
2022/07/10 07:55:59;;;;;;;10.48;5.45;;;16.20;52.30;;;;;;5051563;28;20438;-74
2022/07/10 07:58:24;;;;;;;12.32;6.03;;;16.40;51.70;;;;;;5053740;28;20477;-75
2022/07/10 08:00:50;;;;;;;15.50;5.75;;;16.40;50.70;;;;;;5054442;28;20397;-74
2022/07/10 08:03:16;;;;;;;11.98;5.53;;;16.40;48.30;;;;;;5053773;28;20897;-77
2022/07/10 08:05:42;;;;;;;13.98;6.10;;;16.30;49.50;;;;;;5053507;28;20400;-73
2022/07/10 08:08:09;;;;;;;15.20;4.70;;;16.40;48.10;;;;;;5051957;28;20378;-72
2022/07/10 08:10:36;;;;;;;11.02;4.80;;;16.50;47.90;;;;;;5051267;28;20468;-72
2022/07/10 08:13:02;;;;;;;12.95;4.82;;;16.60;47.00;;;;;;5050886;28;20819;-72
2022/07/10 08:15:28;;;;;;;11.85;3.47;;;16.70;46.20;;;;;;5051396;28;20408;-75
2022/07/10 08:17:55;;;;;;;11.40;4.30;;;16.80;44.10;;;;;;5050797;28;20381;-71
2022/07/10 08:20:22;;;;;;;11.70;3.80;;;16.80;44.70;;;;;;5050660;28;20460;-71
2022/07/10 08:22:48;;;;;;;14.45;3.60;;;16.90;43.30;;;;;;5050550;28;20374;-71
2022/07/10 08:25:14;;;;;;;8.48;4.25;;;16.80;44.00;;;;;;5050743;28;20466;-71
2022/07/10 08:27:40;;;;;;;11.90;4.20;;;16.80;46.20;;;;;;5050639;28;20408;-73
2022/07/10 08:30:08;;;;;;;19.27;5.70;;;16.80;47.10;;;;;;5050572;28;20659;-72
2022/07/10 08:32:34;;;;;;;10.50;4.50;;;17.00;45.10;;;;;;5050345;28;20401;-72
2022/07/10 08:35:00;;;;;;;12.07;3.90;;;17.00;46.90;;;;;;5050544;28;20429;-71
2022/07/10 08:37:25;;;;;;;10.60;3.90;;;17.00;49.30;;;;;;5050435;28;20416;-70
2022/07/10 08:39:51;;;;;;;10.70;3.57;;;16.90;51.30;;;;;;5050608;28;20394;-72
2022/07/10 08:42:18;;;;;;;14.15;3.40;;;17.10;52.80;;;;;;5049285;28;20396;-73
2022/07/10 08:44:44;;;;;;;9.33;3.50;;;17.10;54.80;;;;;;5049237;28;20480;-72
2022/07/10 08:47:13;;;;;;;8.13;3.00;;;17.10;52.40;;;;;;5050562;28;20381;-72
2022/07/10 08:49:45;;;;;;;12.15;3.45;;;17.00;54.70;;;;;;5050405;28;20381;-72
2022/07/10 08:52:21;;;;;;;9.98;3.80;;;16.90;56.60;;;;;;5050570;28;20408;-73
2022/07/10 08:54:50;;;;;;;7.40;3.58;;;17.00;55.10;;;;;;5051110;28;20365;-74
2022/07/10 08:57:18;;;;;;;17.42;4.10;;;17.20;55.70;;;;;;5050710;28;20373;-72
2022/07/10 08:59:43;;;;;;;10.68;3.75;;;17.40;55.10;;;;;;5050383;28;20959;-73
2022/07/10 09:02:09;;;;;;;10.70;4.32;;;18.20;50.50;;;;;;5048860;28;20433;-73
2022/07/10 09:04:35;;;;;;;16.90;5.05;;;18.90;44.20;;;;;;5048883;28;20395;-72
2022/07/10 09:07:00;;;;;;;12.07;4.60;;;19.10;39.60;;;;;;5050426;28;20855;-73
2022/07/10 09:09:26;;;;;;;11.90;4.15;;;19.30;39.20;;;;;;5050330;28;20385;-73
2022/07/10 09:11:58;;;;;;;10.88;4.57;;;19.50;38.20;;;;;;5049942;28;20508;-73
2022/07/10 09:14:27;;;;;;;13.98;5.80;;;19.50;36.40;;;;;;5050306;28;20439;-73
2022/07/10 09:16:53;;;;;;;10.75;5.95;;;19.20;37.80;;;;;;5050182;28;20391;-71
2022/07/10 09:19:21;;;;;;;9.82;5.32;;;19.10;38.10;;;;;;5050478;28;20438;-72
2022/07/10 09:21:52;;;;;;;14.20;6.85;;;19.30;37.60;;;;;;5051746;28;20390;-74
2022/07/10 09:24:21;;;;;;;10.50;6.00;;;19.50;36.80;;;;;;5056516;28;20424;-75
2022/07/10 09:26:56;;;;;;;15.53;5.60;;;19.50;36.00;;;;;;5056556;28;20393;-73
2022/07/10 09:29:21;;;;;;;17.20;6.05;;;19.50;36.00;;;;;;5060658;28;20719;-73
2022/07/10 09:32:01;;;;;;;11.82;4.97;;;19.10;36.60;;;;;;5060132;28;20409;-73
2022/07/10 09:34:44;;;;;;;9.45;4.10;;;18.50;39.20;;;;;;5065374;28;20385;-74
2022/07/10 09:37:18;;;;;;;20.75;4.85;;;18.40;40.10;;;;;;5064811;28;20385;-73
2022/07/10 09:40:04;;;;;;;6.93;4.20;;;18.30;40.40;;;;;;5061136;28;20481;-74
2022/07/10 09:42:32;;;;;;;8.68;3.40;;;18.10;42.20;;;;;;5058642;28;20754;-71
2022/07/10 09:45:09;;;;;;;9.93;3.70;;;17.70;44.20;;;;;;5056710;28;20785;-73
2022/07/10 09:47:34;;;;;;;9.85;3.35;;;17.30;49.70;;;;;;5053551;28;20920;-72
2022/07/10 09:50:00;;;;;;;9.63;3.30;;;16.80;55.10;;;;;;5054165;28;20425;-74
2022/07/10 09:52:27;;;;;;;10.63;3.97;;;16.80;57.00;;;;;;5053902;28;20409;-71
2022/07/10 09:54:53;;;;;;;11.57;3.50;;;17.00;55.40;;;;;;5054195;28;20392;-74
2022/07/10 09:57:20;;;;;;;12.38;6.85;;;17.20;53.50;;;;;;5053727;28;20385;-73
2022/07/10 09:59:46;;;;;;;17.10;9.10;;;17.30;53.30;;;;;;5054103;28;20381;-71
2022/07/10 10:02:13;;;;;;;25.70;11.77;;;17.80;49.80;;;;;;5053800;28;20425;-71
2022/07/10 10:04:41;;;;;;;20.13;10.73;;;18.20;48.00;;;;;;5053372;28;20438;-72
2022/07/10 10:07:12;;;;;;;12.98;6.43;;;18.50;44.40;;;;;;5053612;28;20405;-72
2022/07/10 10:09:56;;;;;;;17.97;5.50;;;18.40;44.10;;;;;;5053798;28;20539;-71
2022/07/10 10:12:45;;;;;;;11.70;6.03;;;18.30;44.30;;;;;;5053849;28;20405;-71
2022/07/10 10:15:11;;;;;;;7.28;4.50;;;19.10;41.60;;;;;;5053507;28;20377;-74
2022/07/10 10:17:40;;;;;;;6.65;4.50;;;19.10;40.50;;;;;;5053366;28;20745;-75
2022/07/10 10:22:55;;;;;;;5.03;3.25;;;19.50;38.50;;;;;;5053110;28;20420;-73
2022/07/10 10:25:23;;;;;;;6.57;3.47;;;19.60;36.60;;;;;;5053566;28;20414;-71
2022/07/10 10:27:49;;;;;;;7.20;3.70;;;19.60;35.90;;;;;;5053321;28;20462;-72
2022/07/10 10:30:15;;;;;;;5.05;3.50;;;19.30;37.90;;;;;;5053502;28;20382;-73
2022/07/10 10:32:41;;;;;;;5.40;3.17;;;19.10;41.10;;;;;;5052933;28;20894;-71
2022/07/10 10:35:09;;;;;;;4.40;2.88;;;18.90;43.70;;;;;;5056015;28;20390;-75
2022/07/10 10:37:37;;;;;;;6.80;2.88;;;19.00;43.70;;;;;;5057477;28;20417;-75
2022/07/10 10:40:05;;;;;;;2.97;2.20;;;19.30;41.00;;;;;;5062833;28;20422;-76
2022/07/10 10:42:43;;;;;;;3.60;1.90;;;19.00;42.10;;;;;;5053744;28;20414;-75
2022/07/10 10:45:29;;;;;;;4.47;2.30;;;18.50;46.60;;;;;;5053854;28;20900;-75
2022/07/10 10:48:04;;;;;;;3.58;2.20;;;18.10;49.30;;;;;;5064187;28;20465;-75
2022/07/10 10:50:36;;;;;;;3.25;1.80;;;18.00;51.80;;;;;;5070385;28;20389;-73
2022/07/10 10:53:02;;;;;;;3.50;1.75;;;17.90;49.50;;;;;;5063963;28;20886;-75
2022/07/10 10:55:27;;;;;;;2.60;1.70;;;18.30;47.80;;;;;;5059263;28;20382;-74
2022/07/10 10:58:13;;;;;;;2.08;1.85;;;19.00;42.90;;;;;;5059908;28;20405;-74
2022/07/10 11:00:41;;;;;;;3.00;1.60;;;19.50;40.20;;;;;;5055190;28;20388;-75
2022/07/10 11:03:20;;;;;;;4.15;1.75;;;19.60;39.80;;;;;;5053518;28;20812;-74
2022/07/10 11:05:47;;;;;;;3.72;1.90;;;19.60;38.60;;;;;;5052388;28;20913;-74
2022/07/10 11:08:14;;;;;;;2.90;1.80;;;19.40;39.00;;;;;;5052230;28;20386;-76
2022/07/10 11:10:44;;;;;;;3.50;1.80;;;19.40;39.70;;;;;;5052781;28;20393;-76
2022/07/10 11:13:14;;;;;;;2.67;1.50;;;19.30;40.00;;;;;;5052732;28;20447;-77
2022/07/10 11:15:42;;;;;;;3.40;1.90;;;19.40;39.30;;;;;;5051999;28;20384;-76
2022/07/10 11:18:15;;;;;;;2.50;2.00;;;19.10;38.60;;;;;;5052149;28;20381;-75
2022/07/10 11:20:49;;;;;;;4.23;2.17;;;18.50;42.70;;;;;;5051830;28;20479;-75
2022/07/10 11:23:38;;;;;;;7.40;2.70;;;18.40;45.00;;;;;;5052004;28;20411;-76
2022/07/10 11:26:27;;;;;;;5.50;3.15;;;18.40;46.30;;;;;;5052061;28;20389;-76
2022/07/10 11:28:59;;;;;;;3.80;2.97;;;18.20;48.80;;;;;;5051986;28;20477;-75
2022/07/10 11:31:26;;;;;;;7.75;3.20;;;18.10;52.30;;;;;;5051902;28;20575;-76
2022/07/10 11:33:54;;;;;;;4.47;3.10;;;17.80;54.60;;;;;;5053357;28;20385;-76
2022/07/10 11:36:34;;;;;;;8.25;3.63;;;17.70;57.00;;;;;;5052460;28;20381;-76
2022/07/10 11:39:08;;;;;;;5.15;3.00;;;17.90;57.30;;;;;;5051662;28;20892;-76
2022/07/10 11:41:41;;;;;;;4.73;3.20;;;18.10;56.20;;;;;;5052093;28;20385;-75
2022/07/10 11:44:12;;;;;;;6.50;3.00;;;18.40;55.20;;;;;;5051987;28;20446;-73
2022/07/10 11:46:38;;;;;;;6.50;2.78;;;18.80;50.10;;;;;;5051190;28;20488;-76
2022/07/10 11:49:08;;;;;;;4.30;2.70;;;19.30;46.60;;;;;;5051830;28;20424;-75
2022/07/10 11:51:37;;;;;;;10.40;2.57;;;19.70;39.40;;;;;;5051573;28;20831;-76
2022/07/10 11:54:05;;;;;;;6.68;2.70;;;20.10;37.20;;;;;;5051870;28;20405;-76
2022/07/10 11:56:34;;;;;;;6.10;2.60;;;20.40;34.30;;;;;;5051626;28;20506;-74
2022/07/10 11:59:10;;;;;;;6.00;2.33;;;20.30;34.10;;;;;;5052128;28;20392;-74
2022/07/10 12:01:46;;;;;;;6.57;2.50;;;19.90;35.60;;;;;;5051175;28;20750;-76
2022/07/10 12:04:13;;;;;;;7.95;2.70;;;19.80;37.20;;;;;;5051316;28;20476;-74
2022/07/10 12:06:44;;;;;;;3.00;2.10;;;19.80;36.20;;;;;;5051317;28;20413;-75
2022/07/10 12:09:15;;;;;;;6.35;1.92;;;19.70;38.40;;;;;;5051726;28;20866;-76
2022/07/10 12:11:42;;;;;;;8.25;2.90;;;19.30;37.30;;;;;;5052248;28;20405;-75
2022/07/10 12:14:19;;;;;;;6.60;2.92;;;18.80;40.90;;;;;;5055432;28;20454;-76
2022/07/10 12:16:46;;;;;;;4.88;3.20;;;18.30;44.90;;;;;;5052441;28;20739;-75
2022/07/10 12:19:17;;;;;;;8.60;3.60;;;17.90;50.20;;;;;;5052551;28;20377;-74
2022/07/10 12:21:44;;;;;;;6.90;3.57;;;17.80;56.20;;;;;;5052688;28;20385;-74
2022/07/10 12:24:12;;;;;;;6.37;3.07;;;17.80;55.70;;;;;;5051258;28;20992;-75
2022/07/10 12:26:41;;;;;;;8.65;3.53;;;17.80;58.20;;;;;;5053312;28;20381;-76
2022/07/10 12:29:18;;;;;;;8.45;3.60;;;17.90;60.20;;;;;;5051046;28;20490;-74
2022/07/10 12:31:45;;;;;;;9.32;3.50;;;18.00;57.40;;;;;;5050856;28;20401;-76
2022/07/10 12:34:11;;;;;;;7.65;3.70;;;18.10;54.70;;;;;;5050720;28;20397;-74
2022/07/10 12:36:50;;;;;;;6.95;4.18;;;18.00;57.20;;;;;;5051363;28;20722;-73
2022/07/10 12:39:24;;;;;;;9.57;4.50;;;17.90;57.90;;;;;;5052398;28;20385;-76
2022/07/10 12:42:02;;;;;;;8.52;4.80;;;17.80;61.50;;;;;;5050200;28;20394;-76
2022/07/10 12:44:47;;;;;;;10.25;4.90;;;17.60;64.20;;;;;;5050234;28;20416;-76
2022/07/10 12:47:16;;;;;;;8.45;4.20;;;17.80;66.70;;;;;;5049451;28;20955;-73
2022/07/10 12:50:08;;;;;;;7.15;4.30;;;18.20;59.90;;;;;;5048401;28;20425;-75
2022/07/10 12:52:35;;;;;;;12.60;4.60;;;18.90;53.90;;;;;;5046833;28;20846;-75
2022/07/10 12:55:13;;;;;;;11.55;4.00;;;19.70;48.10;;;;;;5049877;28;20780;-72
2022/07/10 12:58:09;;;;;;;11.60;4.00;;;20.50;39.40;;;;;;5049822;28;20817;-73
2022/07/10 13:00:49;;;;;;;7.13;4.07;;;21.10;39.50;;;;;;5036187;28;20397;-75